Weather at Tokyo Port Joint Government Building Helipad

Public forecast

Using degrees Celsius for public forecast. Weather courtesy of forecast.io.

Closest aviation weather report (METAR) to Tokyo Port Joint Government Building Helipad

Report is more than 2 hours old.

Closest report is Tokyo Heliport, 3.3 nm (6.1 km) ENE.

2024/05/25 07:00 (retrieved 4 hours ago)

RJTI 250700Z 12017KT 9999 FEW035 BKN080 21/12 Q1013

Closest aviation forecast (TAF) to Tokyo Port Joint Government Building Helipad

Closest forecast is Tokyo Haneda International Airport, 3.9 nm (7.1 km) S.

2024/05/25 06:30 (retrieved 5 hours ago)

TAF RJTT 250505Z 2506/2612 16012KT 9999 FEW030 BECMG 2512/2514 08005KT BECMG 2600/2603 18016KT